createdAt,value
2018-05-12T00:01:43.911Z,44.87
2018-05-12T00:04:12.303Z,40.10
2018-05-12T00:06:41.346Z,45.37
2018-05-12T00:09:14.636Z,42.30
2018-05-12T00:11:43.714Z,43.80
2018-05-12T00:14:13.013Z,44.50
2018-05-12T00:16:41.352Z,47.60
2018-05-12T00:19:09.741Z,44.57
2018-05-12T00:21:39.107Z,48.40
2018-05-12T00:24:07.408Z,43.90
2018-05-12T00:26:36.072Z,43.97
2018-05-12T00:29:04.444Z,47.13
2018-05-12T00:31:33.875Z,47.10
2018-05-12T00:34:03.098Z,51.37
2018-05-12T00:36:33.181Z,48.13
2018-05-12T00:39:01.484Z,50.03
2018-05-12T00:41:29.792Z,47.20
2018-05-12T00:43:58.107Z,50.90
2018-05-12T00:46:26.396Z,49.70
2018-05-12T00:48:54.766Z,49.00
2018-05-12T00:51:23.540Z,48.27
2018-05-12T00:53:51.851Z,48.80
2018-05-12T00:56:20.153Z,50.20
2018-05-12T00:58:48.497Z,54.20
2018-05-12T01:01:17.474Z,50.30
2018-05-12T01:03:45.782Z,48.50
2018-05-12T01:06:14.956Z,45.57
2018-05-12T01:08:43.259Z,51.33
2018-05-12T01:11:12.985Z,48.87
2018-05-12T01:13:41.607Z,51.00
2018-05-12T01:16:09.883Z,52.43
2018-05-12T01:18:38.774Z,52.30
2018-05-12T01:21:07.123Z,53.87
2018-05-12T01:23:36.171Z,51.10
2018-05-12T01:26:04.462Z,45.20
2018-05-12T01:28:32.871Z,49.67
2018-05-12T01:31:01.167Z,53.27
2018-05-12T01:33:29.699Z,51.80
2018-05-12T01:35:58.220Z,50.67
2018-05-12T01:38:26.634Z,47.40
2018-05-12T01:40:54.925Z,48.50
2018-05-12T01:43:23.632Z,46.83
2018-05-12T01:45:51.931Z,50.50
2018-05-12T01:48:20.258Z,53.63
2018-05-12T01:50:48.667Z,51.60
2018-05-12T01:53:17.215Z,54.20
2018-05-12T01:55:45.507Z,51.03
2018-05-12T01:58:13.838Z,49.10
2018-05-12T02:00:42.122Z,46.53
2018-05-12T02:03:10.475Z,52.20
2018-05-12T02:05:39.333Z,48.27
2018-05-12T02:08:08.027Z,48.10
2018-05-12T02:10:37.815Z,43.23
2018-05-12T02:13:06.144Z,46.60
2018-05-12T02:15:35.079Z,44.43
2018-05-12T02:18:03.398Z,41.57
2018-05-12T02:20:31.723Z,38.30
2018-05-12T02:23:00.644Z,38.50
2018-05-12T02:25:29.202Z,42.70
2018-05-12T02:27:58.278Z,38.33
2018-05-12T02:30:27.343Z,39.83
2018-05-12T02:32:56.453Z,39.57
2018-05-12T02:35:24.739Z,37.53
2018-05-12T02:37:53.034Z,37.83
2018-05-12T02:40:21.356Z,38.33
2018-05-12T02:42:49.656Z,37.50
2018-05-12T02:45:18.515Z,35.60
2018-05-12T02:47:48.203Z,38.50
2018-05-12T02:50:16.565Z,39.50
2018-05-12T02:52:45.471Z,38.63
2018-05-12T02:55:14.266Z,39.73
2018-05-12T02:57:44.036Z,38.80
2018-05-12T03:00:12.481Z,41.30
2018-05-12T03:02:40.954Z,42.27
2018-05-12T03:05:10.279Z,43.37
2018-05-12T03:07:38.638Z,42.77
2018-05-12T03:10:07.615Z,41.83
2018-05-12T03:12:35.929Z,47.17
2018-05-12T03:15:04.212Z,51.20
2018-05-12T03:17:32.542Z,47.40
2018-05-12T03:20:00.822Z,48.20
2018-05-12T03:22:29.142Z,47.60
2018-05-12T03:24:57.911Z,42.40
2018-05-12T03:27:26.198Z,50.27
2018-05-12T03:29:54.530Z,52.90
2018-05-12T03:32:23.015Z,50.07
2018-05-12T03:34:51.297Z,48.60
2018-05-12T03:37:19.602Z,47.90
2018-05-12T03:39:48.390Z,48.83
2018-05-12T03:42:17.135Z,45.77
2018-05-12T03:44:45.963Z,49.80
2018-05-12T03:47:14.774Z,48.30
2018-05-12T03:49:43.187Z,45.47
2018-05-12T03:52:11.475Z,45.30
2018-05-12T03:54:39.763Z,41.73
2018-05-12T03:57:08.159Z,41.20
2018-05-12T03:59:36.507Z,43.77
2018-05-12T04:02:05.286Z,45.57
2018-05-12T04:04:51.327Z,47.00
2018-05-12T04:07:37.750Z,38.47
2018-05-12T04:10:24.408Z,39.37
2018-05-12T04:12:53.558Z,39.87
2018-05-12T04:15:22.380Z,51.70
2018-05-12T04:17:50.722Z,48.97
2018-05-12T04:20:19.003Z,48.70
2018-05-12T04:22:47.495Z,48.50
2018-05-12T04:25:16.569Z,44.93
2018-05-12T04:27:46.023Z,40.37
2018-05-12T04:30:14.319Z,39.37
2018-05-12T04:32:42.631Z,36.90
2018-05-12T04:35:11.271Z,35.47
2018-05-12T04:37:39.822Z,36.00
2018-05-12T04:40:08.112Z,31.00
2018-05-12T04:42:36.401Z,30.30
2018-05-12T04:45:04.729Z,28.53
2018-05-12T04:47:33.777Z,27.43
2018-05-12T04:50:02.075Z,26.97
2018-05-12T04:52:31.931Z,26.83
2018-05-12T04:55:00.214Z,24.87
2018-05-12T04:57:28.501Z,27.17
2018-05-12T04:59:56.819Z,26.83
2018-05-12T05:02:25.706Z,25.30
2018-05-12T05:04:54.595Z,26.43
2018-05-12T05:07:22.884Z,26.33
2018-05-12T05:09:51.402Z,27.57
2018-05-12T05:12:20.267Z,27.10
2018-05-12T05:14:48.555Z,29.27
2018-05-12T05:17:17.562Z,28.10
2018-05-12T05:19:45.951Z,29.07
2018-05-12T05:22:14.426Z,31.40
2018-05-12T05:24:42.711Z,28.40
2018-05-12T05:27:11.414Z,30.87
2018-05-12T05:29:40.794Z,28.40
2018-05-12T05:32:09.899Z,28.00
2018-05-12T05:34:38.211Z,24.40
2018-05-12T05:37:07.068Z,25.00
2018-05-12T05:39:35.632Z,27.07
2018-05-12T05:42:03.919Z,25.10
2018-05-12T05:44:32.260Z,24.77
2018-05-12T05:47:01.127Z,25.37
2018-05-12T05:49:29.518Z,25.60
2018-05-12T05:51:57.802Z,23.83
2018-05-12T05:54:26.246Z,25.37
2018-05-12T05:56:55.078Z,26.73
2018-05-12T05:59:23.383Z,24.83
2018-05-12T06:01:52.143Z,25.53
2018-05-12T06:04:21.810Z,25.17
2018-05-12T06:06:51.448Z,25.23
2018-05-12T06:09:19.991Z,25.40
2018-05-12T06:11:48.535Z,28.93
2018-05-12T06:14:17.082Z,31.33
2018-05-12T06:16:46.076Z,27.57
2018-05-12T06:19:14.898Z,28.43
2018-05-12T06:21:43.778Z,29.70
2018-05-12T06:24:12.109Z,27.23
2018-05-12T06:26:40.397Z,29.77
2018-05-12T06:29:09.125Z,26.87
2018-05-12T06:31:37.890Z,26.60
2018-05-12T06:34:06.180Z,26.87
2018-05-12T06:36:34.846Z,28.30
2018-05-12T06:39:03.344Z,27.80
2018-05-12T06:41:31.630Z,30.43
2018-05-12T06:44:00.107Z,30.20
2018-05-12T06:46:28.458Z,26.93
2018-05-12T06:48:56.874Z,29.20
2018-05-12T06:51:26.474Z,29.90
2018-05-12T06:53:55.666Z,30.23
2018-05-12T06:56:24.086Z,27.70
2018-05-12T06:58:52.426Z,29.90
2018-05-12T07:01:21.530Z,30.70
2018-05-12T07:03:50.148Z,27.03
2018-05-12T07:06:18.430Z,28.93
2018-05-12T07:08:47.762Z,28.50
2018-05-12T07:11:16.167Z,28.53
2018-05-12T07:13:44.830Z,30.10
2018-05-12T07:16:13.311Z,29.13
2018-05-12T07:18:41.599Z,28.73
2018-05-12T07:21:09.910Z,29.70
2018-05-12T07:23:38.399Z,29.20
2018-05-12T07:26:06.814Z,32.20
2018-05-12T07:28:35.765Z,32.83
2018-05-12T07:31:05.105Z,31.10
2018-05-12T07:33:33.638Z,33.07
2018-05-12T07:36:02.328Z,31.90
2018-05-12T07:38:31.243Z,30.27
2018-05-12T07:40:59.567Z,28.10
2018-05-12T07:43:27.858Z,30.63
2018-05-12T07:45:56.847Z,30.23
2018-05-12T07:48:25.938Z,32.53
2018-05-12T07:50:54.222Z,30.50
2018-05-12T07:53:22.555Z,32.93
2018-05-12T07:55:50.847Z,32.00
2018-05-12T07:58:19.887Z,32.47
2018-05-12T08:00:49.366Z,29.97
2018-05-12T08:03:17.891Z,30.60
2018-05-12T08:05:46.962Z,30.80
2018-05-12T08:08:15.304Z,29.93
2018-05-12T08:10:43.595Z,29.77
2018-05-12T08:13:11.887Z,31.10
2018-05-12T08:15:40.415Z,30.87
2018-05-12T08:18:08.794Z,31.00
2018-05-12T08:20:37.202Z,27.77
2018-05-12T08:23:05.436Z,30.07
2018-05-12T08:25:34.491Z,30.73
2018-05-12T08:28:02.836Z,30.87
2018-05-12T08:30:32.086Z,30.00
2018-05-12T08:33:00.666Z,30.77
2018-05-12T08:35:28.950Z,28.93
2018-05-12T08:37:57.288Z,29.90
2018-05-12T08:40:25.686Z,28.40
2018-05-12T08:42:53.962Z,29.53
2018-05-12T08:45:22.267Z,28.67
2018-05-12T08:47:50.550Z,29.63
2018-05-12T08:50:18.865Z,26.93
2018-05-12T08:52:47.154Z,25.73
2018-05-12T08:55:15.442Z,29.00
2018-05-12T08:57:43.766Z,24.67
2018-05-12T09:00:13.039Z,26.57
2018-05-12T09:02:41.877Z,27.90
2018-05-12T09:05:10.211Z,30.20
2018-05-12T09:07:38.738Z,28.10
2018-05-12T09:10:07.023Z,24.30
2018-05-12T09:12:36.358Z,26.17
2018-05-12T09:15:04.646Z,26.50
2018-05-12T09:17:33.129Z,24.53
2018-05-12T09:20:01.467Z,23.67
2018-05-12T09:22:30.050Z,23.37
2018-05-12T09:24:58.346Z,25.53
2018-05-12T09:27:26.826Z,27.37
2018-05-12T09:29:55.183Z,27.37
2018-05-12T09:32:23.895Z,27.60
2018-05-12T09:34:52.301Z,24.83
2018-05-12T09:37:20.633Z,22.07
2018-05-12T09:39:49.242Z,21.70
2018-05-12T09:42:17.658Z,22.63
2018-05-12T09:44:46.135Z,17.40
2018-05-12T09:47:14.370Z,15.67
2018-05-12T09:49:42.951Z,13.80
2018-05-12T09:52:11.536Z,13.27
2018-05-12T09:54:40.595Z,18.90
2018-05-12T09:57:09.294Z,16.10
2018-05-12T09:59:37.615Z,11.90
2018-05-12T10:02:06.190Z,14.47
2018-05-12T10:04:34.733Z,13.40
2018-05-12T10:07:03.026Z,17.40
2018-05-12T10:09:31.341Z,20.10
2018-05-12T10:11:59.698Z,18.60
2018-05-12T10:14:28.485Z,15.27
2018-05-12T10:16:56.775Z,14.80
2018-05-12T10:19:25.196Z,18.20
2018-05-12T10:21:53.414Z,21.73
2018-05-12T10:24:21.743Z,16.07
2018-05-12T10:26:50.594Z,14.73
2018-05-12T10:29:18.886Z,18.67
2018-05-12T10:31:47.166Z,20.07
2018-05-12T10:34:15.496Z,17.03
2018-05-12T10:36:44.737Z,18.27
2018-05-12T10:39:13.609Z,18.33
2018-05-12T10:41:41.916Z,18.00
2018-05-12T10:44:10.202Z,16.50
2018-05-12T10:46:39.298Z,14.03
2018-05-12T10:49:08.162Z,14.17
2018-05-12T10:51:36.670Z,13.53
2018-05-12T10:54:05.016Z,11.63
2018-05-12T10:56:33.571Z,12.27
2018-05-12T10:59:01.855Z,11.70
2018-05-12T11:01:30.171Z,12.67
2018-05-12T11:03:58.677Z,10.20
2018-05-12T11:06:26.995Z,9.10
2018-05-12T11:08:55.353Z,8.90
2018-05-12T11:11:23.597Z,9.43
2018-05-12T11:13:51.880Z,9.37
2018-05-12T11:16:20.214Z,8.87
2018-05-12T11:18:48.507Z,8.43
2018-05-12T11:21:16.799Z,7.87
2018-05-12T11:23:45.111Z,7.93
2018-05-12T11:26:13.410Z,8.63
2018-05-12T11:28:41.690Z,9.57
2018-05-12T11:31:10.016Z,8.07
2018-05-12T11:33:38.387Z,8.53
2018-05-12T11:36:07.151Z,7.60
2018-05-12T11:38:35.519Z,8.20
2018-05-12T11:41:03.820Z,9.03
2018-05-12T11:43:32.155Z,8.97
2018-05-12T11:46:00.435Z,7.70
2018-05-12T11:48:28.856Z,7.47
2018-05-12T11:50:57.178Z,8.27
2018-05-12T11:53:25.531Z,7.77
2018-05-12T11:55:54.580Z,7.13
2018-05-12T11:58:22.969Z,9.60
2018-05-12T12:00:52.004Z,7.97
2018-05-12T12:03:21.791Z,7.87
2018-05-12T12:05:50.083Z,7.90
2018-05-12T12:08:18.423Z,7.03
2018-05-12T12:10:47.142Z,8.00
2018-05-12T12:13:16.080Z,8.53
2018-05-12T12:15:44.806Z,7.80
2018-05-12T12:18:13.566Z,8.60
2018-05-12T12:20:41.856Z,9.00
2018-05-12T12:23:10.274Z,8.87
2018-05-12T12:25:38.495Z,8.23
2018-05-12T12:28:06.772Z,8.60
2018-05-12T12:30:35.111Z,8.10
2018-05-12T12:33:03.404Z,7.20
2018-05-12T12:35:32.035Z,6.57
2018-05-12T12:38:01.534Z,8.10
2018-05-12T12:40:30.400Z,8.03
2018-05-12T12:42:58.886Z,7.47
2018-05-12T12:45:27.227Z,6.70
2018-05-12T12:47:55.520Z,6.43
2018-05-12T12:50:23.808Z,7.87
2018-05-12T12:52:52.164Z,6.20
2018-05-12T12:55:20.520Z,7.70
2018-05-12T12:57:48.867Z,6.77
2018-05-12T13:00:17.919Z,7.03
2018-05-12T13:02:46.284Z,7.20
2018-05-12T13:05:14.568Z,6.77
2018-05-12T13:07:43.936Z,7.80
2018-05-12T13:10:12.302Z,8.03
2018-05-12T13:12:40.584Z,7.23
2018-05-12T13:15:08.968Z,7.70
2018-05-12T13:17:37.435Z,7.50
2018-05-12T13:20:05.724Z,7.80
2018-05-12T13:22:34.021Z,6.23
2018-05-12T13:25:02.891Z,7.00
2018-05-12T13:27:31.404Z,7.73
2018-05-12T13:29:59.695Z,7.63
2018-05-12T13:32:28.706Z,7.70
2018-05-12T13:34:57.092Z,7.37
2018-05-12T13:37:25.380Z,7.70
2018-05-12T13:39:53.739Z,6.73
2018-05-12T13:42:22.825Z,7.53
2018-05-12T13:44:52.387Z,7.37
2018-05-12T13:47:21.387Z,6.40
2018-05-12T13:49:49.748Z,7.53
2018-05-12T13:52:18.066Z,7.27
2018-05-12T13:54:46.880Z,7.03
2018-05-12T13:57:15.408Z,6.97
2018-05-12T13:59:43.743Z,6.67
2018-05-12T14:02:13.032Z,6.33
2018-05-12T14:04:41.785Z,5.70
2018-05-12T14:07:10.434Z,6.33
2018-05-12T14:09:38.715Z,7.00
2018-05-12T14:12:07.012Z,6.37
2018-05-12T14:14:36.607Z,6.20
2018-05-12T14:17:04.940Z,6.73
2018-05-12T14:19:33.985Z,5.97
2018-05-12T14:22:02.287Z,6.10
2018-05-12T14:24:31.222Z,6.20
2018-05-12T14:26:59.562Z,6.17
2018-05-12T14:29:27.847Z,6.50
2018-05-12T14:31:56.938Z,6.10
2018-05-12T14:34:25.312Z,6.43
2018-05-12T14:36:53.611Z,5.80
2018-05-12T14:39:21.926Z,6.67
2018-05-12T14:41:50.235Z,6.63
2018-05-12T14:44:18.518Z,5.47
2018-05-12T14:46:46.801Z,6.90
2018-05-12T14:49:15.384Z,6.10
2018-05-12T14:51:44.430Z,5.47
2018-05-12T14:54:12.847Z,5.73
2018-05-12T14:56:41.422Z,5.10
2018-05-12T14:59:09.707Z,5.90
2018-05-12T15:01:37.998Z,5.90
2018-05-12T15:04:06.571Z,6.00
2018-05-12T15:06:35.156Z,5.17
2018-05-12T15:09:03.446Z,6.03
2018-05-12T15:11:31.858Z,6.90
2018-05-12T15:14:00.155Z,6.53
2018-05-12T15:16:28.566Z,6.87
2018-05-12T15:18:57.187Z,6.10
2018-05-12T15:21:25.585Z,5.80
2018-05-12T15:23:54.098Z,5.60
2018-05-12T15:26:22.419Z,5.00
2018-05-12T15:28:51.265Z,5.37
2018-05-12T15:31:20.250Z,5.40
2018-05-12T15:33:48.608Z,6.80
2018-05-12T15:36:17.717Z,11.43
2018-05-12T15:38:46.462Z,6.37
2018-05-12T15:41:15.063Z,5.60
2018-05-12T15:43:43.625Z,5.50
2018-05-12T15:46:11.943Z,5.23
2018-05-12T15:48:40.241Z,5.80
2018-05-12T15:51:08.528Z,5.43
2018-05-12T15:53:36.847Z,5.83
2018-05-12T15:56:05.131Z,5.67
2018-05-12T15:58:33.447Z,6.40
2018-05-12T16:01:01.786Z,6.40
2018-05-12T16:03:30.077Z,5.20
2018-05-12T16:05:58.680Z,5.30
2018-05-12T16:08:27.326Z,5.17
2018-05-12T16:10:55.615Z,5.53
2018-05-12T16:13:23.911Z,4.80
2018-05-12T16:15:52.747Z,4.90
2018-05-12T16:18:21.322Z,5.10
2018-05-12T16:20:49.599Z,4.93
2018-05-12T16:23:18.476Z,5.70
2018-05-12T16:25:46.794Z,5.93
2018-05-12T16:28:15.062Z,5.00
2018-05-12T16:30:43.379Z,5.80
2018-05-12T16:33:12.001Z,5.90
2018-05-12T16:35:40.275Z,4.83
2018-05-12T16:38:09.208Z,5.70
2018-05-12T16:40:38.178Z,5.00
2018-05-12T16:43:06.454Z,4.73
2018-05-12T16:45:34.883Z,4.93
2018-05-12T16:48:03.290Z,5.27
2018-05-12T16:50:31.604Z,4.97
2018-05-12T16:53:01.442Z,5.70
2018-05-12T16:55:29.926Z,4.50
2018-05-12T16:57:58.207Z,5.77
2018-05-12T17:00:26.515Z,5.27
2018-05-12T17:02:54.808Z,5.47
2018-05-12T17:05:23.342Z,5.83
2018-05-12T17:07:52.194Z,4.83
2018-05-12T17:10:20.482Z,5.03
2018-05-12T17:12:48.823Z,4.77
2018-05-12T17:15:17.115Z,5.10
2018-05-12T17:17:45.423Z,4.37
2018-05-12T17:20:13.853Z,4.77
2018-05-12T17:22:42.607Z,4.93
2018-05-12T17:25:11.394Z,4.90
2018-05-12T17:27:40.098Z,5.63
2018-05-12T17:30:08.955Z,5.73
2018-05-12T17:32:37.583Z,5.03
2018-05-12T17:35:06.380Z,5.70
2018-05-12T17:37:34.991Z,6.00
2018-05-12T17:40:03.274Z,5.47
2018-05-12T17:42:31.570Z,5.23
2018-05-12T17:44:59.854Z,5.23
2018-05-12T17:47:29.351Z,4.53
2018-05-12T17:49:58.074Z,5.60
2018-05-12T17:52:26.316Z,5.33
2018-05-12T17:54:54.659Z,5.37
2018-05-12T17:57:23.088Z,5.50
2018-05-12T17:59:51.707Z,5.37
2018-05-12T18:02:20.459Z,5.10
2018-05-12T18:04:49.275Z,5.60
2018-05-12T18:07:17.567Z,6.40
2018-05-12T18:09:45.903Z,6.47
2018-05-12T18:12:14.944Z,6.80
2018-05-12T18:14:43.232Z,7.27
2018-05-12T18:17:11.611Z,6.73
2018-05-12T18:19:40.038Z,7.57
2018-05-12T18:22:08.326Z,6.23
2018-05-12T18:24:36.941Z,7.23
2018-05-12T18:27:05.229Z,6.27
2018-05-12T18:29:33.510Z,6.63
2018-05-12T18:32:01.846Z,6.17
2018-05-12T18:34:30.403Z,7.90
2018-05-12T18:36:58.687Z,6.43
2018-05-12T18:39:27.655Z,6.00
2018-05-12T18:41:55.983Z,6.93
2018-05-12T18:44:24.271Z,7.40
2018-05-12T18:46:52.575Z,6.30
2018-05-12T18:49:21.543Z,5.73
2018-05-12T18:51:49.835Z,6.07
2018-05-12T18:54:18.407Z,6.80
2018-05-12T18:56:47.027Z,7.13
2018-05-12T18:59:15.317Z,8.33
2018-05-12T19:01:43.643Z,10.90
2018-05-12T19:04:11.931Z,13.20
2018-05-12T19:06:40.211Z,8.57
2018-05-12T19:09:08.559Z,8.47
2018-05-12T19:11:37.383Z,6.80
2018-05-12T19:14:05.662Z,7.27
2018-05-12T19:16:33.967Z,6.40
2018-05-12T19:19:02.259Z,6.13
2018-05-12T19:21:30.910Z,6.70
2018-05-12T19:23:59.408Z,9.37
2018-05-12T19:26:28.463Z,6.83
2018-05-12T19:28:57.474Z,7.10
2018-05-12T19:31:26.342Z,6.73
2018-05-12T19:33:54.696Z,7.60
2018-05-12T19:36:23.146Z,7.90
2018-05-12T19:38:51.478Z,6.70
2018-05-12T19:41:19.759Z,7.00
2018-05-12T19:43:48.136Z,6.70
2018-05-12T19:46:16.880Z,7.07
2018-05-12T19:48:45.158Z,8.40
2018-05-12T19:51:13.442Z,8.20
2018-05-12T19:53:42.271Z,7.43
2018-05-12T19:56:10.554Z,7.60
2018-05-12T19:58:38.886Z,7.87
2018-05-12T20:01:07.173Z,8.50
2018-05-12T20:03:35.465Z,8.63
2018-05-12T20:06:03.866Z,8.80
2018-05-12T20:08:32.347Z,8.90
2018-05-12T20:11:00.679Z,7.57
2018-05-12T20:13:29.004Z,7.90
2018-05-12T20:15:58.684Z,8.80
2018-05-12T20:18:27.087Z,8.40
2018-05-12T20:20:55.967Z,7.10
2018-05-12T20:23:24.250Z,8.50
2018-05-12T20:25:52.543Z,8.10
2018-05-12T20:28:21.069Z,9.47
2018-05-12T20:30:50.791Z,8.57
2018-05-12T20:33:19.066Z,9.20
2018-05-12T20:35:47.643Z,8.87
2018-05-12T20:38:15.939Z,8.70
2018-05-12T20:40:44.988Z,8.47
2018-05-12T20:43:14.078Z,9.30
2018-05-12T20:45:42.356Z,8.77
2018-05-12T20:48:11.414Z,9.90
2018-05-12T20:50:39.734Z,9.60
2018-05-12T20:53:08.791Z,9.40
2018-05-12T20:55:38.175Z,11.20
2018-05-12T20:58:06.810Z,9.93
2018-05-12T21:00:35.095Z,8.80
2018-05-12T21:03:03.436Z,8.53
2018-05-12T21:05:32.078Z,9.57
2018-05-12T21:08:00.368Z,10.87
2018-05-12T21:10:28.879Z,7.47
2018-05-12T21:12:57.899Z,8.30
2018-05-12T21:15:26.294Z,10.10
2018-05-12T21:17:55.825Z,8.60
2018-05-12T21:20:24.110Z,9.13
2018-05-12T21:22:52.386Z,9.50
2018-05-12T21:25:20.702Z,9.60
2018-05-12T21:27:48.986Z,8.80
2018-05-12T21:30:17.459Z,8.37
2018-05-12T21:32:45.807Z,8.53
2018-05-12T21:35:14.091Z,8.60
2018-05-12T21:37:42.505Z,8.97
2018-05-12T21:40:10.847Z,9.77
2018-05-12T21:42:39.851Z,9.90
2018-05-12T21:45:08.134Z,10.77
2018-05-12T21:47:36.839Z,9.80
2018-05-12T21:50:05.399Z,8.77
2018-05-12T21:52:33.686Z,9.47
2018-05-12T21:55:02.026Z,10.27
2018-05-12T21:57:30.334Z,10.67
2018-05-12T21:59:58.694Z,10.97
2018-05-12T22:02:27.033Z,9.50
2018-05-12T22:04:55.323Z,9.33
2018-05-12T22:07:23.620Z,10.70
2018-05-12T22:09:52.286Z,9.90
2018-05-12T22:12:20.597Z,11.00
2018-05-12T22:14:48.887Z,10.83
2018-05-12T22:17:17.905Z,12.00
2018-05-12T22:19:46.195Z,10.70
2018-05-12T22:22:14.639Z,10.50
2018-05-12T22:24:43.055Z,10.57
2018-05-12T22:27:11.334Z,10.00
2018-05-12T22:29:39.618Z,10.20
2018-05-12T22:32:08.311Z,11.47
2018-05-12T22:34:36.845Z,10.10
2018-05-12T22:37:05.134Z,11.00
2018-05-12T22:39:33.706Z,10.47
2018-05-12T22:42:02.250Z,10.33
2018-05-12T22:44:30.550Z,11.50
2018-05-12T22:46:58.883Z,10.17
2018-05-12T22:49:27.314Z,10.30
2018-05-12T22:51:55.601Z,10.83
2018-05-12T22:54:23.942Z,9.47
2018-05-12T22:56:52.234Z,8.37
2018-05-12T22:59:20.528Z,8.73
2018-05-12T23:01:48.838Z,9.40
2018-05-12T23:04:17.113Z,8.80
2018-05-12T23:06:45.390Z,7.97
2018-05-12T23:09:13.728Z,8.53
2018-05-12T23:11:42.014Z,7.87
2018-05-12T23:14:10.304Z,8.43
2018-05-12T23:16:38.618Z,9.77
2018-05-12T23:19:06.900Z,9.00
2018-05-12T23:21:35.454Z,9.33
2018-05-12T23:24:04.011Z,8.67
2018-05-12T23:26:32.293Z,9.37
2018-05-12T23:29:00.579Z,9.13
2018-05-12T23:31:28.912Z,8.67
2018-05-12T23:33:57.335Z,8.93
2018-05-12T23:36:25.620Z,8.43
2018-05-12T23:38:53.955Z,8.00
2018-05-12T23:41:22.355Z,7.80
2018-05-12T23:43:50.635Z,7.60
2018-05-12T23:46:20.142Z,7.70
2018-05-12T23:48:48.438Z,9.30
2018-05-12T23:51:16.741Z,9.10
2018-05-12T23:53:45.138Z,7.47
2018-05-12T23:56:14.087Z,7.80
2018-05-12T23:58:42.573Z,8.67
